Time;durP1;ratioP1;P1;durP2;ratioP2;P2;SDS_P1;SDS_P2;PMS_P1;PMS_P2;Temp;Humidity;BMP_temperature;BMP_pressure;BME280_temperature;BME280_humidity;BME280_pressure;Samples;Min_cycle;Max_cycle;Signal;HPM_P1;HPM_P2
2023/03/02 00:01:37;;;;;;;25.02;22.42;;;3.10;99.90;;;;;;5082920;28;20447;-77
2023/03/02 00:04:07;;;;;;;26.33;23.20;;;3.10;99.90;;;;;;5088532;28;20417;-76
2023/03/02 00:06:34;;;;;;;28.00;23.08;;;3.00;99.90;;;;;;5087754;28;20414;-77
2023/03/02 00:09:00;;;;;;;26.38;23.17;;;2.90;99.90;;;;;;5084877;28;20434;-76
2023/03/02 00:11:31;;;;;;;25.08;22.02;;;2.90;99.90;;;;;;5080146;28;20411;-77
2023/03/02 00:13:57;;;;;;;26.40;23.75;;;2.80;99.90;;;;;;5071960;28;20494;-77
2023/03/02 00:16:22;;;;;;;27.48;24.58;;;3.10;99.90;;;;;;5083684;28;20502;-76
2023/03/02 00:18:48;;;;;;;29.03;24.57;;;2.80;99.90;;;;;;5089834;27;20464;-78
2023/03/02 00:21:14;;;;;;;28.70;25.07;;;3.00;99.90;;;;;;5076944;28;20412;-76
2023/03/02 00:23:39;;;;;;;26.30;23.43;;;2.90;99.90;;;;;;5089826;28;20419;-76
2023/03/02 00:26:05;;;;;;;26.33;23.53;;;2.80;99.90;;;;;;5089676;28;20815;-76
2023/03/02 00:28:32;;;;;;;26.53;23.03;;;2.80;99.90;;;;;;5071183;28;20428;-76
2023/03/02 00:30:58;;;;;;;25.70;22.98;;;2.90;99.90;;;;;;5082653;28;20436;-76
2023/03/02 00:33:24;;;;;;;28.85;25.85;;;2.90;99.90;;;;;;5094016;28;20411;-77
2023/03/02 00:35:49;;;;;;;29.20;26.10;;;2.80;99.90;;;;;;5083640;28;20973;-77
2023/03/02 00:38:15;;;;;;;28.90;26.00;;;2.80;99.90;;;;;;5089561;28;20804;-76
2023/03/02 00:40:45;;;;;;;30.43;26.70;;;2.80;99.90;;;;;;5082861;28;20467;-75
2023/03/02 00:43:11;;;;;;;32.38;26.38;;;2.70;99.90;;;;;;5089400;28;20429;-76
2023/03/02 00:45:37;;;;;;;28.92;25.92;;;2.70;99.90;;;;;;5083000;28;20421;-76
2023/03/02 00:48:03;;;;;;;29.43;26.13;;;2.60;99.90;;;;;;5084771;27;20777;-77
2023/03/02 00:50:29;;;;;;;29.97;26.67;;;2.80;99.90;;;;;;5083210;28;20438;-76
2023/03/02 00:52:55;;;;;;;30.42;26.42;;;2.50;99.90;;;;;;5106338;27;20421;-76
2023/03/02 00:55:20;;;;;;;29.00;25.90;;;2.70;99.90;;;;;;5087051;28;20519;-76
2023/03/02 00:57:53;;;;;;;29.67;26.13;;;2.40;99.90;;;;;;5081748;28;20431;-76
2023/03/02 01:00:26;;;;;;;29.37;25.53;;;2.50;99.90;;;;;;5083118;28;20463;-76
2023/03/02 01:02:52;;;;;;;26.95;24.05;;;2.60;99.90;;;;;;5090470;28;20437;-76
2023/03/02 01:05:17;;;;;;;28.43;25.03;;;2.30;99.90;;;;;;5075177;28;20410;-77
2023/03/02 01:07:43;;;;;;;28.08;25.08;;;2.50;99.90;;;;;;5077876;28;20437;-76
2023/03/02 01:10:09;;;;;;;28.05;25.05;;;2.50;99.90;;;;;;5084503;28;20796;-76
2023/03/02 01:12:35;;;;;;;27.38;24.45;;;2.40;99.90;;;;;;5086742;27;20459;-77
2023/03/02 01:15:02;;;;;;;28.57;25.57;;;2.40;99.90;;;;;;5083479;28;21036;-77
2023/03/02 01:17:27;;;;;;;26.88;23.60;;;2.40;99.90;;;;;;5091165;28;20436;-76
2023/03/02 01:19:53;;;;;;;27.63;22.67;;;2.30;99.90;;;;;;5078815;28;20463;-76
2023/03/02 01:22:20;;;;;;;27.40;24.30;;;2.40;99.90;;;;;;5078385;27;20486;-77
2023/03/02 01:24:46;;;;;;;25.17;22.52;;;2.50;99.90;;;;;;5081941;28;20429;-76
2023/03/02 01:27:12;;;;;;;25.83;23.07;;;2.40;99.90;;;;;;5077137;28;20476;-77
2023/03/02 01:29:37;;;;;;;26.23;22.93;;;2.40;99.90;;;;;;5081793;28;20428;-76
2023/03/02 01:32:03;;;;;;;25.80;22.63;;;2.50;99.90;;;;;;5079953;28;20419;-76
2023/03/02 01:34:30;;;;;;;29.83;24.40;;;2.40;99.90;;;;;;5083101;28;20464;-77
2023/03/02 01:36:56;;;;;;;26.40;23.38;;;2.40;99.90;;;;;;5078696;28;20507;-76
2023/03/02 01:39:22;;;;;;;26.25;23.45;;;2.50;99.90;;;;;;5082449;28;20502;-75
2023/03/02 01:41:50;;;;;;;26.13;23.07;;;2.30;99.90;;;;;;5074781;28;20520;-78
2023/03/02 01:44:48;;;;;;;25.77;22.98;;;2.40;99.90;;;;;;5071419;28;20422;-77
2023/03/02 01:47:22;;;;;;;29.05;23.00;;;2.50;99.90;;;;;;5082064;28;20484;-76
2023/03/02 01:50:17;;;;;;;26.77;23.33;;;2.30;99.90;;;;;;5099485;28;20442;-77
2023/03/02 01:52:42;;;;;;;27.80;23.92;;;2.20;99.90;;;;;;5087279;28;20433;-77
2023/03/02 01:55:10;;;;;;;28.33;25.35;;;2.40;99.90;;;;;;5091617;28;20610;-75
2023/03/02 01:57:42;;;;;;;28.27;24.02;;;2.30;99.90;;;;;;5089518;28;20483;-75
2023/03/02 02:00:14;;;;;;;29.40;25.00;;;2.20;99.90;;;;;;5086670;28;20401;-76
2023/03/02 02:02:41;;;;;;;28.95;24.00;;;2.40;99.90;;;;;;5084811;28;20428;-76
2023/03/02 02:05:14;;;;;;;28.52;24.10;;;2.30;99.90;;;;;;5083395;28;20501;-76
2023/03/02 02:07:40;;;;;;;28.17;24.27;;;2.20;99.90;;;;;;5082054;28;20463;-77
2023/03/02 02:10:07;;;;;;;29.85;24.35;;;2.20;99.90;;;;;;5102152;27;20432;-77
2023/03/02 02:12:33;;;;;;;27.98;23.48;;;2.40;99.90;;;;;;5082264;28;20469;-76
2023/03/02 02:15:00;;;;;;;27.27;24.08;;;2.40;99.90;;;;;;5075226;28;20814;-77
2023/03/02 02:17:28;;;;;;;29.40;24.48;;;2.50;99.90;;;;;;5063010;28;20455;-77
2023/03/02 02:20:24;;;;;;;26.92;23.60;;;2.50;99.90;;;;;;5069478;28;22580;-77
2023/03/02 02:23:26;;;;;;;29.70;24.25;;;2.30;99.90;;;;;;5065873;28;20495;-77
2023/03/02 02:25:51;;;;;;;31.02;25.95;;;2.30;99.90;;;;;;5066881;28;20423;-76
2023/03/02 02:28:58;;;;;;;29.80;24.70;;;2.10;99.90;;;;;;5070599;28;20430;-77
2023/03/02 02:31:32;;;;;;;29.08;24.58;;;2.10;99.90;;;;;;5057285;28;20425;-77
2023/03/02 02:34:04;;;;;;;27.55;23.27;;;2.20;99.90;;;;;;5084772;28;20441;-77
2023/03/02 02:36:36;;;;;;;27.65;23.92;;;2.10;99.90;;;;;;5069260;28;20960;-76
2023/03/02 02:39:05;;;;;;;28.80;23.83;;;2.10;99.90;;;;;;5078280;28;20467;-76
2023/03/02 02:41:37;;;;;;;27.95;23.52;;;2.00;99.90;;;;;;5076798;28;20455;-76
2023/03/02 02:44:03;;;;;;;26.88;22.67;;;2.00;99.90;;;;;;5084068;28;20430;-76
2023/03/02 02:46:30;;;;;;;28.38;24.70;;;2.00;99.90;;;;;;5080547;28;20443;-77
2023/03/02 02:48:56;;;;;;;30.42;23.75;;;2.10;99.90;;;;;;5075844;28;20576;-77
2023/03/02 02:51:25;;;;;;;28.30;23.33;;;2.00;99.90;;;;;;5084447;28;20980;-76
2023/03/02 02:54:04;;;;;;;32.22;23.75;;;1.80;99.90;;;;;;5083177;28;20445;-76
2023/03/02 02:56:33;;;;;;;30.15;23.38;;;1.90;99.90;;;;;;5077013;28;20408;-77
2023/03/02 02:59:09;;;;;;;31.20;23.27;;;1.90;99.90;;;;;;5091318;28;20423;-77
2023/03/02 03:01:35;;;;;;;28.50;23.33;;;2.10;99.90;;;;;;5075045;28;20426;-76
2023/03/02 03:04:03;;;;;;;30.88;24.90;;;2.10;99.90;;;;;;5083701;28;20425;-76
2023/03/02 03:06:37;;;;;;;31.60;25.00;;;2.00;99.90;;;;;;5086356;28;20776;-76
2023/03/02 03:09:06;;;;;;;35.00;26.13;;;2.10;99.90;;;;;;5091444;28;20452;-77
2023/03/02 03:11:39;;;;;;;35.15;26.98;;;1.90;99.90;;;;;;5069741;28;20420;-76
2023/03/02 03:14:10;;;;;;;37.22;27.27;;;2.00;99.90;;;;;;5081072;28;20964;-76
2023/03/02 03:16:37;;;;;;;34.17;27.23;;;1.90;99.90;;;;;;5096057;28;20779;-77
2023/03/02 03:19:16;;;;;;;35.72;27.42;;;1.90;99.90;;;;;;5084733;28;20422;-76
2023/03/02 03:21:41;;;;;;;29.35;25.55;;;2.10;99.90;;;;;;5088988;28;20430;-77
2023/03/02 03:24:07;;;;;;;33.35;25.55;;;2.10;99.90;;;;;;5089788;28;20858;-77
2023/03/02 03:26:33;;;;;;;31.52;25.60;;;2.00;99.90;;;;;;5083543;28;20420;-76
2023/03/02 03:28:59;;;;;;;33.43;25.67;;;2.20;99.90;;;;;;5091179;28;20787;-76
2023/03/02 03:31:26;;;;;;;30.80;24.30;;;2.00;99.90;;;;;;5090365;28;20420;-77
2023/03/02 03:33:53;;;;;;;35.38;26.98;;;2.20;99.90;;;;;;5079996;28;20819;-77
2023/03/02 03:36:20;;;;;;;42.35;29.63;;;2.10;99.90;;;;;;5082159;28;20422;-77
2023/03/02 03:38:46;;;;;;;43.37;31.43;;;1.80;99.90;;;;;;5074522;28;20454;-76
2023/03/02 03:41:11;;;;;;;46.15;34.50;;;1.90;99.90;;;;;;5083562;28;20471;-76
2023/03/02 03:43:37;;;;;;;44.55;33.05;;;1.80;99.90;;;;;;5080930;28;20817;-75
2023/03/02 03:46:03;;;;;;;43.22;32.25;;;1.90;99.90;;;;;;5079470;28;20862;-75
2023/03/02 03:48:29;;;;;;;47.13;32.90;;;1.90;99.90;;;;;;5092894;28;20422;-75
2023/03/02 03:50:54;;;;;;;43.83;32.10;;;1.80;99.90;;;;;;5085134;28;20516;-76
2023/03/02 03:53:20;;;;;;;48.07;34.23;;;2.00;99.90;;;;;;5071561;28;20437;-76
2023/03/02 03:55:46;;;;;;;45.60;33.10;;;2.00;99.90;;;;;;5081110;28;20432;-76
2023/03/02 03:58:12;;;;;;;48.45;33.40;;;1.80;99.90;;;;;;5076491;28;20896;-77
2023/03/02 04:00:37;;;;;;;47.25;34.25;;;1.90;99.90;;;;;;5074233;28;20429;-77
2023/03/02 04:03:03;;;;;;;46.67;33.93;;;2.00;99.90;;;;;;5079399;28;20433;-76
2023/03/02 04:05:29;;;;;;;53.20;34.93;;;1.90;99.90;;;;;;5075998;28;20466;-76
2023/03/02 04:07:55;;;;;;;47.50;33.47;;;1.90;99.90;;;;;;5079219;28;20419;-75
2023/03/02 04:10:21;;;;;;;62.17;32.30;;;1.90;99.90;;;;;;5079297;28;20420;-76
2023/03/02 04:12:46;;;;;;;46.33;30.80;;;1.60;99.90;;;;;;5090344;28;20436;-76
2023/03/02 04:15:14;;;;;;;50.72;34.03;;;1.70;99.90;;;;;;5078143;28;20461;-76
2023/03/02 04:17:42;;;;;;;39.17;29.97;;;1.60;99.90;;;;;;5087626;28;20957;-77
2023/03/02 04:20:09;;;;;;;44.83;31.80;;;1.60;99.90;;;;;;5085056;28;20793;-76
2023/03/02 04:22:35;;;;;;;42.95;32.63;;;1.70;99.90;;;;;;5075350;28;20482;-76
2023/03/02 04:25:00;;;;;;;43.75;31.02;;;1.60;99.90;;;;;;5070555;28;20432;-76
2023/03/02 04:27:26;;;;;;;39.75;29.00;;;1.90;99.90;;;;;;5084229;28;20453;-77
2023/03/02 04:29:51;;;;;;;42.28;29.70;;;1.80;99.90;;;;;;5092166;28;20431;-77
2023/03/02 04:32:18;;;;;;;58.88;31.88;;;1.70;99.90;;;;;;5079847;28;20434;-77
2023/03/02 04:34:44;;;;;;;56.53;31.42;;;1.80;99.90;;;;;;5076028;28;20473;-77
2023/03/02 04:37:09;;;;;;;45.15;31.25;;;1.70;99.90;;;;;;5083224;28;20451;-77
2023/03/02 04:39:35;;;;;;;47.88;33.42;;;1.70;99.90;;;;;;5098536;28;20461;-76
2023/03/02 04:42:01;;;;;;;54.95;31.67;;;1.70;99.90;;;;;;5093273;28;20422;-76
2023/03/02 04:44:27;;;;;;;52.92;33.88;;;1.60;99.90;;;;;;5102473;27;20419;-76
2023/03/02 04:46:52;;;;;;;56.10;29.90;;;1.70;99.90;;;;;;5080950;28;20417;-77
2023/03/02 04:49:19;;;;;;;117.47;34.70;;;1.60;99.90;;;;;;5085555;28;20486;-77
2023/03/02 04:51:47;;;;;;;82.45;32.65;;;1.50;99.90;;;;;;5099038;28;20473;-76
2023/03/02 04:54:19;;;;;;;82.03;31.00;;;1.50;99.90;;;;;;5095355;28;20429;-76
2023/03/02 04:56:47;;;;;;;70.30;31.43;;;1.60;99.90;;;;;;5074052;28;20776;-75
2023/03/02 04:59:14;;;;;;;62.88;31.88;;;1.40;99.90;;;;;;5082477;28;20422;-76
2023/03/02 05:01:40;;;;;;;94.47;32.20;;;1.40;99.90;;;;;;5080015;28;20511;-76
2023/03/02 05:04:06;;;;;;;96.73;32.57;;;1.50;99.90;;;;;;5095835;28;20563;-76
2023/03/02 05:06:32;;;;;;;56.15;31.02;;;1.30;99.90;;;;;;5082972;28;20432;-76
2023/03/02 05:08:58;;;;;;;49.42;30.63;;;1.50;99.90;;;;;;5082472;28;20848;-77
2023/03/02 05:11:24;;;;;;;50.38;31.88;;;1.40;99.90;;;;;;5088358;28;20416;-77
2023/03/02 05:13:53;;;;;;;63.10;31.43;;;1.50;99.90;;;;;;5084922;28;20471;-77
2023/03/02 05:16:19;;;;;;;98.73;34.27;;;1.50;99.90;;;;;;5099111;28;20411;-77
2023/03/02 05:18:45;;;;;;;69.55;30.92;;;1.70;99.90;;;;;;5077735;28;20430;-75
2023/03/02 05:21:13;;;;;;;73.95;34.47;;;1.40;99.90;;;;;;5072388;28;20796;-75
2023/03/02 05:23:39;;;;;;;88.70;33.97;;;1.40;99.90;;;;;;5071030;28;20471;-76
2023/03/02 05:26:05;;;;;;;78.78;34.15;;;1.50;99.90;;;;;;5086548;28;20464;-76
2023/03/02 05:28:32;;;;;;;105.60;33.60;;;1.50;99.90;;;;;;5081711;28;20448;-76
2023/03/02 05:30:58;;;;;;;85.93;32.70;;;1.40;99.90;;;;;;5086935;28;20430;-76
2023/03/02 05:33:23;;;;;;;128.68;34.17;;;1.40;99.90;;;;;;5081926;28;20421;-76
2023/03/02 05:35:49;;;;;;;168.25;34.10;;;1.60;99.90;;;;;;5086429;28;20465;-76
2023/03/02 05:38:15;;;;;;;134.90;33.65;;;1.30;99.90;;;;;;5057282;28;20921;-78
2023/03/02 05:40:41;;;;;;;154.82;35.35;;;1.20;99.90;;;;;;5081835;28;20494;-76
2023/03/02 05:43:08;;;;;;;171.85;33.47;;;1.20;99.90;;;;;;5105643;27;20955;-76
2023/03/02 05:45:36;;;;;;;179.80;33.55;;;1.30;99.90;;;;;;5093079;27;20778;-76
2023/03/02 05:48:03;;;;;;;235.25;42.30;;;1.20;99.90;;;;;;5091680;27;20524;-76
2023/03/02 05:50:29;;;;;;;116.07;35.20;;;1.10;99.90;;;;;;5079195;28;20814;-76
2023/03/02 05:52:55;;;;;;;135.63;36.17;;;1.20;99.90;;;;;;5078489;28;20511;-76
2023/03/02 05:55:20;;;;;;;163.47;38.07;;;1.10;99.90;;;;;;5074637;28;20424;-76
2023/03/02 05:57:48;;;;;;;154.10;37.63;;;1.10;99.90;;;;;;5084861;28;20418;-77
2023/03/02 06:00:16;;;;;;;114.78;33.58;;;1.00;99.90;;;;;;5072895;28;21001;-76
2023/03/02 06:02:42;;;;;;;148.27;35.67;;;1.00;99.90;;;;;;5079345;28;20422;-74
2023/03/02 06:05:12;;;;;;;111.57;35.22;;;0.90;99.90;;;;;;5077047;28;20421;-76
2023/03/02 06:07:38;;;;;;;120.03;37.22;;;0.90;99.90;;;;;;5081569;28;20423;-77
2023/03/02 06:10:05;;;;;;;150.27;36.65;;;1.00;99.90;;;;;;5077473;28;22381;-77
2023/03/02 06:12:31;;;;;;;129.25;38.00;;;1.10;99.90;;;;;;5073924;28;20913;-77
2023/03/02 06:14:58;;;;;;;171.07;39.58;;;1.20;99.90;;;;;;5076378;28;20411;-77
2023/03/02 06:17:24;;;;;;;179.07;41.58;;;1.10;99.90;;;;;;5080850;28;20445;-77
2023/03/02 06:19:50;;;;;;;185.40;40.55;;;1.30;99.90;;;;;;5090154;28;20432;-78
2023/03/02 06:22:16;;;;;;;179.43;39.92;;;1.10;99.90;;;;;;5090100;27;20422;-76
2023/03/02 06:24:41;;;;;;;170.83;37.90;;;1.20;99.90;;;;;;5087456;28;20413;-76
2023/03/02 06:27:07;;;;;;;157.70;34.53;;;1.10;99.90;;;;;;5077729;28;20415;-77
2023/03/02 06:29:33;;;;;;;141.20;37.93;;;1.00;99.90;;;;;;5080243;28;20438;-77
2023/03/02 06:31:58;;;;;;;128.00;38.47;;;1.00;99.90;;;;;;5080861;28;20430;-76
2023/03/02 06:34:24;;;;;;;121.10;38.08;;;1.10;99.90;;;;;;5085769;28;20506;-77
2023/03/02 06:36:50;;;;;;;164.30;39.30;;;1.10;99.90;;;;;;5084374;28;20418;-76
2023/03/02 06:39:15;;;;;;;156.20;38.13;;;1.10;99.90;;;;;;5074671;28;20453;-75
2023/03/02 06:41:45;;;;;;;215.07;39.83;;;0.90;99.90;;;;;;5075419;28;20422;-76
2023/03/02 06:44:11;;;;;;;227.43;41.22;;;1.10;99.90;;;;;;5077446;28;20442;-76
2023/03/02 06:46:38;;;;;;;198.75;39.75;;;1.10;99.90;;;;;;5085768;28;20432;-76
2023/03/02 06:49:04;;;;;;;173.03;39.73;;;1.10;99.90;;;;;;5066021;28;20481;-77
2023/03/02 06:51:30;;;;;;;160.15;42.30;;;1.20;99.90;;;;;;5090957;28;20423;-77
2023/03/02 06:53:56;;;;;;;183.32;42.28;;;1.30;99.90;;;;;;5101594;28;20416;-77
2023/03/02 06:56:22;;;;;;;134.32;37.25;;;1.20;99.90;;;;;;5084557;28;20787;-76
2023/03/02 06:58:48;;;;;;;224.48;43.05;;;1.20;99.90;;;;;;5088786;28;20448;-77
2023/03/02 07:01:14;;;;;;;159.50;37.57;;;1.10;99.90;;;;;;5085789;28;20444;-76
2023/03/02 07:03:40;;;;;;;178.05;38.22;;;1.10;99.90;;;;;;5099367;28;20519;-76
2023/03/02 07:06:06;;;;;;;196.57;40.08;;;1.10;99.90;;;;;;5087234;28;20463;-77
2023/03/02 07:08:32;;;;;;;155.30;38.78;;;1.10;99.90;;;;;;5087951;28;20414;-76
2023/03/02 07:10:58;;;;;;;125.63;38.25;;;1.10;99.90;;;;;;5081220;28;20468;-76
2023/03/02 07:13:23;;;;;;;129.17;35.60;;;1.00;99.90;;;;;;5087574;28;20459;-76
2023/03/02 07:15:49;;;;;;;139.07;34.13;;;1.00;99.90;;;;;;5083159;28;20432;-77
2023/03/02 07:18:15;;;;;;;162.07;36.42;;;0.90;99.90;;;;;;5095666;28;20414;-77
2023/03/02 07:20:41;;;;;;;137.32;36.38;;;1.00;99.90;;;;;;5087734;28;20478;-78
2023/03/02 07:23:06;;;;;;;155.00;35.72;;;1.10;99.90;;;;;;5103076;28;20449;-76
2023/03/02 07:25:32;;;;;;;175.45;40.13;;;1.10;99.90;;;;;;5094286;28;20845;-77
2023/03/02 07:27:58;;;;;;;126.77;35.87;;;1.20;99.90;;;;;;5081528;28;20445;-76
2023/03/02 07:30:24;;;;;;;164.30;36.87;;;1.10;99.90;;;;;;5093717;28;20436;-76
2023/03/02 07:32:50;;;;;;;143.90;36.22;;;1.10;99.90;;;;;;5089575;28;20782;-76
2023/03/02 07:35:16;;;;;;;161.50;37.33;;;1.10;99.90;;;;;;5070115;28;20423;-76
2023/03/02 07:37:42;;;;;;;113.65;35.83;;;1.00;99.90;;;;;;5088436;28;20832;-76
2023/03/02 07:40:11;;;;;;;134.65;37.22;;;1.40;99.90;;;;;;5082367;28;20422;-77
2023/03/02 07:42:37;;;;;;;159.07;38.47;;;1.40;99.90;;;;;;5085703;28;20431;-78
2023/03/02 07:45:04;;;;;;;184.32;42.80;;;1.40;99.90;;;;;;5099564;28;20661;-76
2023/03/02 07:47:31;;;;;;;143.63;37.42;;;1.40;99.90;;;;;;5081347;28;20420;-76
2023/03/02 07:49:57;;;;;;;115.93;39.23;;;1.50;99.90;;;;;;5079857;28;20496;-76
2023/03/02 07:52:22;;;;;;;103.80;35.78;;;1.50;99.90;;;;;;5073556;28;20415;-78
2023/03/02 07:54:48;;;;;;;108.13;35.30;;;1.40;99.90;;;;;;5103341;28;20429;-78
2023/03/02 07:57:15;;;;;;;86.15;33.58;;;1.60;99.90;;;;;;5074951;28;20762;-77
2023/03/02 07:59:41;;;;;;;97.18;34.78;;;1.60;99.90;;;;;;5080187;28;20938;-76
2023/03/02 08:02:12;;;;;;;97.15;36.25;;;1.70;99.90;;;;;;5074536;28;20403;-77
2023/03/02 08:04:38;;;;;;;101.40;32.33;;;1.60;99.90;;;;;;5075834;28;20447;-77
2023/03/02 08:07:04;;;;;;;73.43;34.03;;;1.70;99.90;;;;;;5087471;28;20416;-77
2023/03/02 08:09:30;;;;;;;91.75;35.33;;;1.70;99.90;;;;;;5095486;28;20441;-77
2023/03/02 08:11:55;;;;;;;79.88;35.15;;;1.70;99.90;;;;;;5088871;28;20409;-77
2023/03/02 08:14:21;;;;;;;62.93;35.27;;;1.70;99.90;;;;;;5091512;28;20463;-76
2023/03/02 08:16:47;;;;;;;70.13;33.17;;;1.80;99.90;;;;;;5078435;28;20411;-76
2023/03/02 08:19:13;;;;;;;65.03;34.03;;;1.50;99.90;;;;;;5117103;27;20784;-76
2023/03/02 08:21:38;;;;;;;73.25;34.83;;;1.60;99.90;;;;;;5085178;28;20414;-76
2023/03/02 08:24:04;;;;;;;69.35;33.33;;;1.80;99.90;;;;;;5083826;28;20427;-77
2023/03/02 08:26:30;;;;;;;57.85;34.17;;;1.90;99.90;;;;;;5086964;28;20501;-79
2023/03/02 08:28:55;;;;;;;70.18;32.47;;;1.70;99.90;;;;;;5086549;28;20424;-77
2023/03/02 08:31:21;;;;;;;105.18;32.20;;;1.80;99.90;;;;;;5099406;28;20505;-77
2023/03/02 08:33:47;;;;;;;103.20;34.20;;;1.90;99.90;;;;;;5096223;28;20424;-75
2023/03/02 08:36:15;;;;;;;86.73;35.30;;;1.60;99.90;;;;;;5105017;28;20414;-77
2023/03/02 08:38:42;;;;;;;82.85;34.28;;;1.70;99.90;;;;;;5090588;28;20443;-76
2023/03/02 08:41:12;;;;;;;81.15;33.42;;;1.90;99.90;;;;;;5087238;28;20416;-77
2023/03/02 08:43:37;;;;;;;82.82;35.53;;;1.80;99.90;;;;;;5084274;28;20471;-77
2023/03/02 08:46:03;;;;;;;76.77;35.37;;;1.80;99.90;;;;;;5089630;28;20749;-80
2023/03/02 08:48:30;;;;;;;88.70;36.10;;;2.00;99.90;;;;;;5090787;28;20418;-78
2023/03/02 08:51:14;;;;;;;78.82;35.85;;;2.20;99.90;;;;;;5089850;28;20406;-77
2023/03/02 08:53:42;;;;;;;117.85;36.83;;;2.10;99.90;;;;;;5091283;28;20402;-76
2023/03/02 08:56:23;;;;;;;91.90;35.15;;;1.90;99.90;;;;;;5086534;28;20572;-77
2023/03/02 08:58:50;;;;;;;56.15;33.42;;;2.10;99.90;;;;;;5083566;28;20430;-77
2023/03/02 09:01:19;;;;;;;53.13;33.40;;;1.90;99.90;;;;;;5083862;28;20418;-79
2023/03/02 09:03:45;;;;;;;54.37;33.73;;;2.00;99.90;;;;;;5107267;28;20525;-79
2023/03/02 09:06:11;;;;;;;52.30;32.60;;;2.30;99.90;;;;;;5100010;28;20421;-77
2023/03/02 09:08:37;;;;;;;41.25;29.45;;;2.20;99.90;;;;;;5091135;28;20429;-79
2023/03/02 09:11:03;;;;;;;43.70;29.83;;;2.50;99.90;;;;;;5094608;28;20531;-78
2023/03/02 09:13:29;;;;;;;42.10;30.73;;;2.40;99.90;;;;;;5078528;28;20421;-79
2023/03/02 09:15:55;;;;;;;40.67;29.85;;;2.50;99.90;;;;;;5085369;28;20436;-80
2023/03/02 09:18:21;;;;;;;39.60;30.33;;;2.40;99.90;;;;;;5091702;28;20397;-77
2023/03/02 09:20:51;;;;;;;38.10;29.93;;;2.50;99.90;;;;;;5107864;28;20416;-77
2023/03/02 09:23:17;;;;;;;42.05;29.58;;;2.50;99.90;;;;;;5093647;28;20406;-77
2023/03/02 09:25:43;;;;;;;40.53;28.52;;;2.30;99.90;;;;;;5091207;28;20430;-76
2023/03/02 09:28:10;;;;;;;41.45;28.88;;;2.40;99.90;;;;;;5093953;27;20467;-77
2023/03/02 09:30:35;;;;;;;36.10;28.05;;;2.80;99.90;;;;;;5098967;28;20408;-77
2023/03/02 09:33:01;;;;;;;38.10;30.27;;;2.70;99.90;;;;;;5074977;28;20533;-77
2023/03/02 09:35:27;;;;;;;38.65;29.00;;;2.90;99.90;;;;;;5116586;27;20421;-77
2023/03/02 09:37:52;;;;;;;33.78;25.77;;;2.90;99.90;;;;;;5089968;28;20437;-76
2023/03/02 09:40:21;;;;;;;36.33;25.25;;;2.70;99.90;;;;;;5100639;28;20406;-76
2023/03/02 09:43:03;;;;;;;37.03;26.10;;;2.90;99.90;;;;;;5096417;28;20421;-76
2023/03/02 09:45:38;;;;;;;41.05;26.00;;;2.90;99.90;;;;;;5091542;28;20417;-76
2023/03/02 09:48:37;;;;;;;35.43;26.83;;;2.70;99.90;;;;;;5087817;28;20414;-78
2023/03/02 09:51:31;;;;;;;38.90;27.92;;;3.10;99.90;;;;;;5068323;28;20902;-78
2023/03/02 09:54:10;;;;;;;30.47;25.60;;;2.90;99.90;;;;;;5068161;28;20742;-77
2023/03/02 09:56:48;;;;;;;36.53;27.77;;;2.90;99.90;;;;;;5095063;28;20551;-76
2023/03/02 09:59:19;;;;;;;33.92;26.27;;;2.70;99.90;;;;;;5091730;28;20777;-75
2023/03/02 10:02:21;;;;;;;32.72;25.30;;;2.90;99.90;;;;;;5076170;28;20422;-76
2023/03/02 10:04:51;;;;;;;30.87;23.93;;;2.80;99.90;;;;;;5088078;28;20835;-77
2023/03/02 10:07:37;;;;;;;33.78;26.52;;;3.00;99.90;;;;;;5089097;28;20497;-75
2023/03/02 10:10:21;;;;;;;32.53;26.30;;;3.10;99.90;;;;;;5095884;28;20900;-76
2023/03/02 10:13:27;;;;;;;28.33;23.63;;;3.20;99.90;;;;;;5102662;28;20461;-75
2023/03/02 10:16:11;;;;;;;31.95;25.55;;;3.60;99.90;;;;;;5082778;28;20480;-76
2023/03/02 10:19:06;;;;;;;30.00;24.53;;;4.10;99.90;;;;;;5086932;28;20507;-76
2023/03/02 10:21:36;;;;;;;26.25;22.67;;;3.80;99.90;;;;;;5086936;28;20409;-76
2023/03/02 10:24:25;;;;;;;29.17;23.48;;;3.80;99.90;;;;;;5087309;28;20422;-76
2023/03/02 10:26:58;;;;;;;24.70;20.95;;;4.10;99.90;;;;;;5087796;28;20493;-77
2023/03/02 10:29:39;;;;;;;28.67;23.73;;;3.90;99.90;;;;;;5087188;28;20420;-76
2023/03/02 10:32:19;;;;;;;25.55;21.33;;;3.90;99.90;;;;;;5073654;28;21033;-76
2023/03/02 10:34:47;;;;;;;26.60;21.88;;;3.90;99.90;;;;;;5075462;28;20427;-76
2023/03/02 10:37:27;;;;;;;27.83;23.95;;;4.10;99.90;;;;;;5070616;28;20422;-76
2023/03/02 10:39:53;;;;;;;26.30;22.00;;;4.50;99.90;;;;;;5086398;28;20955;-82
2023/03/02 10:42:25;;;;;;;26.00;21.67;;;5.00;99.90;;;;;;5086930;28;20413;-79
2023/03/02 10:45:05;;;;;;;26.13;22.57;;;5.00;99.90;;;;;;5082890;28;20773;-78
2023/03/02 10:47:31;;;;;;;25.30;22.10;;;4.50;99.90;;;;;;5086501;28;20422;-77
2023/03/02 10:49:57;;;;;;;24.85;21.13;;;4.30;99.90;;;;;;5084453;28;20531;-77
2023/03/02 10:52:27;;;;;;;23.33;20.80;;;4.40;99.90;;;;;;5075236;28;20415;-77
2023/03/02 10:55:13;;;;;;;26.00;21.77;;;4.20;99.90;;;;;;5091439;28;20432;-78
2023/03/02 10:57:44;;;;;;;23.63;20.38;;;4.30;99.90;;;;;;5107377;28;20415;-78
2023/03/02 11:00:15;;;;;;;25.75;21.85;;;4.40;99.90;;;;;;5079714;28;20441;-78
2023/03/02 11:02:49;;;;;;;19.15;16.83;;;4.50;99.90;;;;;;5084802;28;20430;-76
2023/03/02 11:05:28;;;;;;;20.70;17.95;;;4.40;99.90;;;;;;5085101;28;20429;-74
2023/03/02 11:08:05;;;;;;;21.45;17.65;;;4.20;99.90;;;;;;5085617;28;20502;-77
2023/03/02 11:10:49;;;;;;;18.98;16.98;;;4.40;99.90;;;;;;5088905;28;20451;-76
2023/03/02 11:13:25;;;;;;;21.90;17.60;;;4.30;99.90;;;;;;5083757;28;20425;-76
2023/03/02 11:15:54;;;;;;;19.30;16.42;;;4.30;99.90;;;;;;5083231;28;20449;-76
2023/03/02 11:18:30;;;;;;;19.67;16.70;;;4.60;99.90;;;;;;5076985;28;20473;-76
2023/03/02 11:21:11;;;;;;;21.85;16.90;;;4.70;99.90;;;;;;5095713;28;20422;-75
2023/03/02 11:23:50;;;;;;;19.10;17.03;;;4.70;99.90;;;;;;5089444;28;20437;-77
2023/03/02 11:26:29;;;;;;;18.48;16.10;;;4.80;99.90;;;;;;5080727;28;20412;-77
2023/03/02 11:29:29;;;;;;;21.13;17.67;;;4.70;99.90;;;;;;5092325;28;20478;-76
2023/03/02 11:32:18;;;;;;;19.10;16.95;;;4.90;99.90;;;;;;5080957;28;20411;-75
2023/03/02 11:35:13;;;;;;;19.98;17.25;;;5.00;99.90;;;;;;5081206;28;20426;-77
2023/03/02 11:37:48;;;;;;;18.30;14.93;;;5.10;99.90;;;;;;5069582;28;20459;-76
2023/03/02 11:40:45;;;;;;;18.13;15.90;;;4.80;99.90;;;;;;5068411;28;20493;-77
2023/03/02 11:43:12;;;;;;;19.20;15.73;;;4.90;99.90;;;;;;5075769;28;20949;-76
2023/03/02 11:45:50;;;;;;;21.10;16.33;;;5.20;99.90;;;;;;5094481;28;20448;-76
2023/03/02 11:48:41;;;;;;;21.90;17.42;;;5.30;99.90;;;;;;5092442;28;20433;-76
2023/03/02 11:51:13;;;;;;;17.92;15.80;;;5.30;99.90;;;;;;5077003;28;20430;-76
2023/03/02 11:53:44;;;;;;;17.80;14.83;;;5.20;99.90;;;;;;5112479;28;20392;-77
2023/03/02 11:56:10;;;;;;;17.95;14.27;;;5.30;99.90;;;;;;5091274;28;20671;-76
2023/03/02 11:58:38;;;;;;;19.10;15.27;;;5.60;99.90;;;;;;5073981;28;20408;-77
2023/03/02 12:01:08;;;;;;;17.35;15.15;;;5.50;99.90;;;;;;5079761;28;20410;-77
2023/03/02 12:03:36;;;;;;;17.95;14.93;;;5.40;99.90;;;;;;5090344;28;20401;-77
2023/03/02 12:06:03;;;;;;;22.95;17.38;;;5.40;99.90;;;;;;5091356;28;20804;-75
2023/03/02 12:08:41;;;;;;;19.55;16.27;;;5.50;99.90;;;;;;5110390;28;20785;-76
2023/03/02 12:11:32;;;;;;;20.98;16.85;;;5.50;99.90;;;;;;5095495;28;20459;-77
2023/03/02 12:14:01;;;;;;;19.30;14.93;;;5.40;99.90;;;;;;5087753;28;20916;-77
2023/03/02 12:16:40;;;;;;;18.48;14.68;;;5.40;99.90;;;;;;5091078;28;20413;-75
2023/03/02 12:19:15;;;;;;;16.52;13.73;;;5.40;99.90;;;;;;5089901;28;20422;-77
2023/03/02 12:22:04;;;;;;;16.65;13.27;;;5.70;99.90;;;;;;5081135;28;21137;-77
2023/03/02 12:24:35;;;;;;;15.52;12.85;;;5.70;99.90;;;;;;5072220;28;20488;-77
2023/03/02 12:27:19;;;;;;;17.95;14.07;;;5.80;99.90;;;;;;5091520;28;20428;-78
2023/03/02 12:29:48;;;;;;;18.80;13.83;;;6.00;99.90;;;;;;5102466;28;20514;-77
2023/03/02 12:32:17;;;;;;;15.80;13.30;;;6.00;99.90;;;;;;5083432;28;20957;-76
2023/03/02 12:35:19;;;;;;;16.30;13.68;;;5.80;99.90;;;;;;5091781;28;20434;-75
2023/03/02 12:37:49;;;;;;;16.85;13.40;;;5.90;99.90;;;;;;4994483;28;20925;-75
2023/03/02 12:40:39;;;;;;;17.05;13.48;;;5.90;99.90;;;;;;5063509;28;20801;-75
2023/03/02 12:43:37;;;;;;;19.25;14.82;;;6.20;99.90;;;;;;5091338;28;20430;-74
2023/03/02 12:46:32;;;;;;;19.35;14.52;;;6.20;99.90;;;;;;5087107;28;20516;-75
2023/03/02 12:49:04;;;;;;;23.20;17.42;;;6.20;99.90;;;;;;5088504;28;20429;-75
2023/03/02 12:51:43;;;;;;;26.17;20.27;;;6.30;99.90;;;;;;5101261;28;20493;-76